sensor_id;sensor_type;location;lat;lon;timestamp;P1;durP1;ratioP1;P2;durP2;ratioP2
1775;SDS011;885;42.626;23.200;2022-07-19T00:00:22;5.80;;;5.20;;
1775;SDS011;885;42.626;23.200;2022-07-19T00:02:50;7.07;;;5.80;;
1775;SDS011;885;42.626;23.200;2022-07-19T00:05:17;6.10;;;5.60;;
1775;SDS011;885;42.626;23.200;2022-07-19T00:07:45;6.40;;;5.33;;
1775;SDS011;885;42.626;23.200;2022-07-19T00:10:13;6.17;;;5.37;;
1775;SDS011;885;42.626;23.200;2022-07-19T00:12:43;6.10;;;4.90;;
1775;SDS011;885;42.626;23.200;2022-07-19T00:15:11;6.00;;;5.40;;
1775;SDS011;885;42.626;23.200;2022-07-19T00:17:40;6.97;;;5.40;;
1775;SDS011;885;42.626;23.200;2022-07-19T00:20:11;6.27;;;5.77;;
1775;SDS011;885;42.626;23.200;2022-07-19T00:22:44;9.40;;;5.20;;
1775;SDS011;885;42.626;23.200;2022-07-19T00:25:10;5.57;;;5.07;;
1775;SDS011;885;42.626;23.200;2022-07-19T00:27:38;5.83;;;5.43;;
1775;SDS011;885;42.626;23.200;2022-07-19T00:30:08;5.70;;;5.20;;
1775;SDS011;885;42.626;23.200;2022-07-19T00:32:36;6.63;;;6.03;;
1775;SDS011;885;42.626;23.200;2022-07-19T00:35:03;6.50;;;5.20;;
1775;SDS011;885;42.626;23.200;2022-07-19T00:37:30;6.57;;;5.87;;
1775;SDS011;885;42.626;23.200;2022-07-19T00:39:57;6.23;;;5.73;;
1775;SDS011;885;42.626;23.200;2022-07-19T00:42:24;6.47;;;5.60;;
1775;SDS011;885;42.626;23.200;2022-07-19T00:44:51;7.63;;;6.20;;
1775;SDS011;885;42.626;23.200;2022-07-19T00:47:19;7.00;;;5.87;;
1775;SDS011;885;42.626;23.200;2022-07-19T00:49:47;7.33;;;6.40;;
1775;SDS011;885;42.626;23.200;2022-07-19T00:52:14;8.03;;;5.90;;
1775;SDS011;885;42.626;23.200;2022-07-19T00:54:41;6.93;;;6.43;;
1775;SDS011;885;42.626;23.200;2022-07-19T00:57:09;6.87;;;6.23;;
1775;SDS011;885;42.626;23.200;2022-07-19T00:59:36;7.13;;;6.53;;
1775;SDS011;885;42.626;23.200;2022-07-19T01:02:03;7.27;;;6.60;;
1775;SDS011;885;42.626;23.200;2022-07-19T01:04:32;8.00;;;7.10;;
1775;SDS011;885;42.626;23.200;2022-07-19T01:06:59;6.30;;;5.70;;
1775;SDS011;885;42.626;23.200;2022-07-19T01:09:27;7.50;;;6.83;;
1775;SDS011;885;42.626;23.200;2022-07-19T01:11:54;7.47;;;6.70;;
1775;SDS011;885;42.626;23.200;2022-07-19T01:14:22;6.47;;;5.73;;
1775;SDS011;885;42.626;23.200;2022-07-19T01:16:48;9.87;;;6.60;;
1775;SDS011;885;42.626;23.200;2022-07-19T01:19:15;6.73;;;6.13;;
1775;SDS011;885;42.626;23.200;2022-07-19T01:21:43;7.00;;;6.33;;
1775;SDS011;885;42.626;23.200;2022-07-19T01:24:10;7.50;;;6.90;;
1775;SDS011;885;42.626;23.200;2022-07-19T01:26:37;7.90;;;7.10;;
1775;SDS011;885;42.626;23.200;2022-07-19T01:29:04;7.63;;;7.03;;
1775;SDS011;885;42.626;23.200;2022-07-19T01:31:31;6.43;;;5.93;;
1775;SDS011;885;42.626;23.200;2022-07-19T01:33:58;7.47;;;6.80;;
1775;SDS011;885;42.626;23.200;2022-07-19T01:36:24;6.80;;;6.13;;
1775;SDS011;885;42.626;23.200;2022-07-19T01:38:52;7.20;;;6.60;;
1775;SDS011;885;42.626;23.200;2022-07-19T01:41:19;7.43;;;6.73;;
1775;SDS011;885;42.626;23.200;2022-07-19T01:43:46;7.27;;;6.70;;
1775;SDS011;885;42.626;23.200;2022-07-19T01:46:13;7.83;;;7.00;;
1775;SDS011;885;42.626;23.200;2022-07-19T01:48:40;7.80;;;7.00;;
1775;SDS011;885;42.626;23.200;2022-07-19T01:51:07;7.90;;;7.30;;
1775;SDS011;885;42.626;23.200;2022-07-19T01:53:34;8.00;;;7.20;;
1775;SDS011;885;42.626;23.200;2022-07-19T01:56:04;9.93;;;6.97;;
1775;SDS011;885;42.626;23.200;2022-07-19T01:58:32;8.43;;;7.60;;
1775;SDS011;885;42.626;23.200;2022-07-19T02:00:58;8.73;;;7.50;;
1775;SDS011;885;42.626;23.200;2022-07-19T02:03:26;9.50;;;7.10;;
1775;SDS011;885;42.626;23.200;2022-07-19T02:05:52;8.77;;;8.00;;
1775;SDS011;885;42.626;23.200;2022-07-19T02:08:20;9.83;;;6.73;;
1775;SDS011;885;42.626;23.200;2022-07-19T02:10:47;7.33;;;6.50;;
1775;SDS011;885;42.626;23.200;2022-07-19T02:13:15;7.80;;;7.10;;
1775;SDS011;885;42.626;23.200;2022-07-19T02:15:42;7.20;;;6.60;;
1775;SDS011;885;42.626;23.200;2022-07-19T02:18:09;8.27;;;7.30;;
1775;SDS011;885;42.626;23.200;2022-07-19T02:20:36;8.10;;;7.30;;
1775;SDS011;885;42.626;23.200;2022-07-19T02:23:02;7.70;;;7.10;;
1775;SDS011;885;42.626;23.200;2022-07-19T02:25:29;8.93;;;8.13;;
1775;SDS011;885;42.626;23.200;2022-07-19T02:27:56;7.93;;;7.23;;
1775;SDS011;885;42.626;23.200;2022-07-19T02:30:24;7.67;;;6.97;;
1775;SDS011;885;42.626;23.200;2022-07-19T02:32:51;8.17;;;7.37;;
1775;SDS011;885;42.626;23.200;2022-07-19T02:35:18;8.60;;;7.80;;
1775;SDS011;885;42.626;23.200;2022-07-19T02:37:45;8.40;;;7.70;;
1775;SDS011;885;42.626;23.200;2022-07-19T02:40:11;11.73;;;8.70;;
1775;SDS011;885;42.626;23.200;2022-07-19T02:42:39;9.17;;;8.37;;
1775;SDS011;885;42.626;23.200;2022-07-19T02:45:06;9.90;;;8.90;;
1775;SDS011;885;42.626;23.200;2022-07-19T02:47:36;10.27;;;9.37;;
1775;SDS011;885;42.626;23.200;2022-07-19T02:50:04;9.43;;;8.60;;
1775;SDS011;885;42.626;23.200;2022-07-19T02:52:32;11.00;;;9.90;;
1775;SDS011;885;42.626;23.200;2022-07-19T02:54:59;12.50;;;9.83;;
1775;SDS011;885;42.626;23.200;2022-07-19T02:57:26;11.30;;;10.10;;
1775;SDS011;885;42.626;23.200;2022-07-19T02:59:52;11.13;;;10.07;;
1775;SDS011;885;42.626;23.200;2022-07-19T03:02:19;11.07;;;9.97;;
1775;SDS011;885;42.626;23.200;2022-07-19T03:04:48;11.80;;;10.80;;
1775;SDS011;885;42.626;23.200;2022-07-19T03:07:15;12.90;;;10.57;;
1775;SDS011;885;42.626;23.200;2022-07-19T03:09:42;10.90;;;10.00;;
1775;SDS011;885;42.626;23.200;2022-07-19T03:12:08;11.20;;;9.90;;
1775;SDS011;885;42.626;23.200;2022-07-19T03:14:35;11.67;;;10.57;;
1775;SDS011;885;42.626;23.200;2022-07-19T03:17:02;12.20;;;11.00;;
1775;SDS011;885;42.626;23.200;2022-07-19T03:19:29;11.63;;;10.33;;
1775;SDS011;885;42.626;23.200;2022-07-19T03:21:57;10.70;;;9.70;;
1775;SDS011;885;42.626;23.200;2022-07-19T03:24:24;10.97;;;10.07;;
1775;SDS011;885;42.626;23.200;2022-07-19T03:26:51;10.33;;;9.23;;
1775;SDS011;885;42.626;23.200;2022-07-19T03:29:17;11.87;;;10.63;;
1775;SDS011;885;42.626;23.200;2022-07-19T03:31:44;12.57;;;10.20;;
1775;SDS011;885;42.626;23.200;2022-07-19T03:34:30;12.27;;;11.03;;
1775;SDS011;885;42.626;23.200;2022-07-19T03:36:58;11.60;;;10.60;;
1775;SDS011;885;42.626;23.200;2022-07-19T03:39:25;11.67;;;10.57;;
1775;SDS011;885;42.626;23.200;2022-07-19T03:41:52;11.27;;;10.27;;
1775;SDS011;885;42.626;23.200;2022-07-19T03:44:19;11.00;;;9.90;;
1775;SDS011;885;42.626;23.200;2022-07-19T03:46:45;11.83;;;10.30;;
1775;SDS011;885;42.626;23.200;2022-07-19T03:49:12;11.10;;;10.00;;
1775;SDS011;885;42.626;23.200;2022-07-19T03:51:39;10.53;;;9.53;;
1775;SDS011;885;42.626;23.200;2022-07-19T03:54:07;10.87;;;9.87;;
1775;SDS011;885;42.626;23.200;2022-07-19T03:56:34;11.90;;;10.63;;
1775;SDS011;885;42.626;23.200;2022-07-19T03:59:01;9.87;;;8.87;;
1775;SDS011;885;42.626;23.200;2022-07-19T04:01:29;10.73;;;9.17;;
1775;SDS011;885;42.626;23.200;2022-07-19T04:03:56;10.07;;;9.07;;
1775;SDS011;885;42.626;23.200;2022-07-19T04:06:23;11.70;;;9.13;;
1775;SDS011;885;42.626;23.200;2022-07-19T04:08:50;12.30;;;9.27;;
1775;SDS011;885;42.626;23.200;2022-07-19T04:11:18;10.17;;;9.17;;
1775;SDS011;885;42.626;23.200;2022-07-19T04:13:45;10.70;;;9.60;;
1775;SDS011;885;42.626;23.200;2022-07-19T04:16:11;10.40;;;9.20;;
1775;SDS011;885;42.626;23.200;2022-07-19T04:18:38;9.20;;;8.33;;
1775;SDS011;885;42.626;23.200;2022-07-19T04:21:05;9.20;;;8.30;;
1775;SDS011;885;42.626;23.200;2022-07-19T04:23:32;9.33;;;8.43;;
1775;SDS011;885;42.626;23.200;2022-07-19T04:25:59;9.80;;;8.87;;
1775;SDS011;885;42.626;23.200;2022-07-19T04:28:28;9.40;;;8.50;;
1775;SDS011;885;42.626;23.200;2022-07-19T04:30:54;9.07;;;8.13;;
1775;SDS011;885;42.626;23.200;2022-07-19T04:33:21;10.00;;;7.73;;
1775;SDS011;885;42.626;23.200;2022-07-19T04:35:48;9.83;;;8.70;;
1775;SDS011;885;42.626;23.200;2022-07-19T04:38:15;9.13;;;8.33;;
1775;SDS011;885;42.626;23.200;2022-07-19T04:40:41;8.43;;;7.63;;
1775;SDS011;885;42.626;23.200;2022-07-19T04:43:08;7.90;;;6.80;;
1775;SDS011;885;42.626;23.200;2022-07-19T04:45:36;9.23;;;8.30;;
1775;SDS011;885;42.626;23.200;2022-07-19T04:48:04;7.97;;;7.27;;
1775;SDS011;885;42.626;23.200;2022-07-19T04:50:31;8.10;;;7.40;;
1775;SDS011;885;42.626;23.200;2022-07-19T04:52:58;7.57;;;6.97;;
1775;SDS011;885;42.626;23.200;2022-07-19T04:55:25;8.70;;;7.90;;
1775;SDS011;885;42.626;23.200;2022-07-19T04:57:52;7.60;;;7.00;;
1775;SDS011;885;42.626;23.200;2022-07-19T05:00:19;8.37;;;7.67;;
1775;SDS011;885;42.626;23.200;2022-07-19T05:02:47;7.17;;;6.57;;
1775;SDS011;885;42.626;23.200;2022-07-19T05:05:14;6.93;;;6.23;;
1775;SDS011;885;42.626;23.200;2022-07-19T05:07:41;7.10;;;6.40;;
1775;SDS011;885;42.626;23.200;2022-07-19T05:10:09;7.07;;;6.40;;
1775;SDS011;885;42.626;23.200;2022-07-19T05:12:37;7.13;;;6.50;;
1775;SDS011;885;42.626;23.200;2022-07-19T05:15:04;7.33;;;6.53;;
1775;SDS011;885;42.626;23.200;2022-07-19T05:17:31;8.00;;;7.30;;
1775;SDS011;885;42.626;23.200;2022-07-19T05:19:59;7.20;;;6.60;;
1775;SDS011;885;42.626;23.200;2022-07-19T05:22:26;9.20;;;6.97;;
1775;SDS011;885;42.626;23.200;2022-07-19T05:24:53;8.23;;;7.50;;
1775;SDS011;885;42.626;23.200;2022-07-19T05:27:21;8.70;;;8.00;;
1775;SDS011;885;42.626;23.200;2022-07-19T05:29:48;7.67;;;7.07;;
1775;SDS011;885;42.626;23.200;2022-07-19T05:32:16;7.80;;;6.97;;
1775;SDS011;885;42.626;23.200;2022-07-19T05:34:43;7.10;;;6.40;;
1775;SDS011;885;42.626;23.200;2022-07-19T05:37:11;6.67;;;6.07;;
1775;SDS011;885;42.626;23.200;2022-07-19T05:39:38;6.83;;;6.30;;
1775;SDS011;885;42.626;23.200;2022-07-19T05:42:05;7.40;;;6.70;;
1775;SDS011;885;42.626;23.200;2022-07-19T05:44:32;8.40;;;5.93;;
1775;SDS011;885;42.626;23.200;2022-07-19T05:46:59;7.33;;;6.53;;
1775;SDS011;885;42.626;23.200;2022-07-19T05:49:26;7.40;;;6.80;;
1775;SDS011;885;42.626;23.200;2022-07-19T05:51:52;7.20;;;6.50;;
1775;SDS011;885;42.626;23.200;2022-07-19T05:54:21;6.90;;;6.20;;
1775;SDS011;885;42.626;23.200;2022-07-19T05:56:47;7.97;;;6.73;;
1775;SDS011;885;42.626;23.200;2022-07-19T05:59:14;7.10;;;6.40;;
1775;SDS011;885;42.626;23.200;2022-07-19T06:01:41;6.40;;;5.80;;
1775;SDS011;885;42.626;23.200;2022-07-19T06:04:08;7.00;;;6.23;;
1775;SDS011;885;42.626;23.200;2022-07-19T06:06:35;7.37;;;6.00;;
1775;SDS011;885;42.626;23.200;2022-07-19T06:09:02;5.83;;;5.20;;
1775;SDS011;885;42.626;23.200;2022-07-19T06:11:31;6.53;;;5.07;;
1775;SDS011;885;42.626;23.200;2022-07-19T06:13:58;5.30;;;4.80;;
1775;SDS011;885;42.626;23.200;2022-07-19T06:16:25;9.97;;;5.03;;
1775;SDS011;885;42.626;23.200;2022-07-19T06:18:52;8.10;;;5.00;;
1775;SDS011;885;42.626;23.200;2022-07-19T06:21:19;7.50;;;4.20;;
1775;SDS011;885;42.626;23.200;2022-07-19T06:23:47;5.00;;;4.40;;
1775;SDS011;885;42.626;23.200;2022-07-19T06:26:14;5.60;;;4.10;;
1775;SDS011;885;42.626;23.200;2022-07-19T06:28:42;7.57;;;4.30;;
1775;SDS011;885;42.626;23.200;2022-07-19T06:31:10;6.67;;;4.70;;
1775;SDS011;885;42.626;23.200;2022-07-19T06:33:38;4.00;;;3.60;;
1775;SDS011;885;42.626;23.200;2022-07-19T06:36:05;5.27;;;3.77;;
1775;SDS011;885;42.626;23.200;2022-07-19T06:38:32;6.40;;;3.80;;
1775;SDS011;885;42.626;23.200;2022-07-19T06:40:59;3.73;;;3.43;;
1775;SDS011;885;42.626;23.200;2022-07-19T06:43:25;5.27;;;4.00;;
1775;SDS011;885;42.626;23.200;2022-07-19T06:45:54;4.00;;;3.43;;
1775;SDS011;885;42.626;23.200;2022-07-19T06:48:21;4.30;;;3.90;;
1775;SDS011;885;42.626;23.200;2022-07-19T06:50:48;6.27;;;3.23;;
1775;SDS011;885;42.626;23.200;2022-07-19T06:53:15;7.47;;;3.60;;
1775;SDS011;885;42.626;23.200;2022-07-19T06:55:41;7.33;;;2.80;;
1775;SDS011;885;42.626;23.200;2022-07-19T06:58:08;6.80;;;3.10;;
1775;SDS011;885;42.626;23.200;2022-07-19T07:00:35;6.43;;;3.20;;
1775;SDS011;885;42.626;23.200;2022-07-19T07:03:04;5.13;;;3.20;;
1775;SDS011;885;42.626;23.200;2022-07-19T07:05:31;8.13;;;3.17;;
1775;SDS011;885;42.626;23.200;2022-07-19T07:07:58;7.93;;;4.23;;
1775;SDS011;885;42.626;23.200;2022-07-19T07:10:26;3.53;;;3.23;;
1775;SDS011;885;42.626;23.200;2022-07-19T07:12:53;5.90;;;3.63;;
1775;SDS011;885;42.626;23.200;2022-07-19T07:15:20;4.73;;;3.83;;
1775;SDS011;885;42.626;23.200;2022-07-19T07:17:46;5.77;;;3.43;;
1775;SDS011;885;42.626;23.200;2022-07-19T07:20:15;9.17;;;4.70;;
1775;SDS011;885;42.626;23.200;2022-07-19T07:22:41;10.13;;;3.73;;
1775;SDS011;885;42.626;23.200;2022-07-19T07:25:08;6.47;;;4.00;;
1775;SDS011;885;42.626;23.200;2022-07-19T07:27:35;4.97;;;4.13;;
1775;SDS011;885;42.626;23.200;2022-07-19T07:30:03;4.27;;;3.87;;
1775;SDS011;885;42.626;23.200;2022-07-19T07:32:31;4.87;;;4.07;;
1775;SDS011;885;42.626;23.200;2022-07-19T07:34:58;4.33;;;3.77;;
1775;SDS011;885;42.626;23.200;2022-07-19T07:37:26;7.67;;;5.23;;
1775;SDS011;885;42.626;23.200;2022-07-19T07:39:53;5.33;;;3.30;;
1775;SDS011;885;42.626;23.200;2022-07-19T07:42:20;8.60;;;4.00;;
1775;SDS011;885;42.626;23.200;2022-07-19T07:44:48;6.57;;;4.50;;
1775;SDS011;885;42.626;23.200;2022-07-19T07:47:15;5.40;;;3.80;;
1775;SDS011;885;42.626;23.200;2022-07-19T07:49:41;9.20;;;4.00;;
1775;SDS011;885;42.626;23.200;2022-07-19T07:52:08;5.10;;;3.63;;
1775;SDS011;885;42.626;23.200;2022-07-19T07:54:36;5.53;;;4.10;;
1775;SDS011;885;42.626;23.200;2022-07-19T07:57:03;4.20;;;3.23;;
1775;SDS011;885;42.626;23.200;2022-07-19T07:59:30;5.53;;;3.87;;
1775;SDS011;885;42.626;23.200;2022-07-19T08:01:57;7.67;;;4.90;;
1775;SDS011;885;42.626;23.200;2022-07-19T08:04:24;7.27;;;5.20;;
1775;SDS011;885;42.626;23.200;2022-07-19T08:06:50;3.50;;;2.77;;
1775;SDS011;885;42.626;23.200;2022-07-19T08:09:17;4.50;;;2.93;;
1775;SDS011;885;42.626;23.200;2022-07-19T08:11:45;3.10;;;2.80;;
1775;SDS011;885;42.626;23.200;2022-07-19T08:14:12;4.40;;;2.93;;
1775;SDS011;885;42.626;23.200;2022-07-19T08:16:39;4.33;;;2.37;;
1775;SDS011;885;42.626;23.200;2022-07-19T08:19:06;3.47;;;2.67;;
1775;SDS011;885;42.626;23.200;2022-07-19T08:21:33;2.97;;;2.50;;
1775;SDS011;885;42.626;23.200;2022-07-19T08:23:59;3.23;;;2.20;;
1775;SDS011;885;42.626;23.200;2022-07-19T08:26:26;7.37;;;3.00;;
1775;SDS011;885;42.626;23.200;2022-07-19T08:28:56;3.77;;;2.57;;
1775;SDS011;885;42.626;23.200;2022-07-19T08:31:23;2.63;;;2.43;;
1775;SDS011;885;42.626;23.200;2022-07-19T08:33:50;3.40;;;3.10;;
1775;SDS011;885;42.626;23.200;2022-07-19T08:36:17;4.70;;;2.70;;
1775;SDS011;885;42.626;23.200;2022-07-19T08:38:43;4.40;;;3.17;;
1775;SDS011;885;42.626;23.200;2022-07-19T08:41:11;3.10;;;2.80;;
1775;SDS011;885;42.626;23.200;2022-07-19T08:43:39;5.60;;;3.00;;
1775;SDS011;885;42.626;23.200;2022-07-19T08:46:08;4.93;;;3.30;;
1775;SDS011;885;42.626;23.200;2022-07-19T08:48:35;4.83;;;2.80;;
1775;SDS011;885;42.626;23.200;2022-07-19T08:51:04;4.13;;;2.97;;
1775;SDS011;885;42.626;23.200;2022-07-19T08:53:32;4.93;;;2.90;;
1775;SDS011;885;42.626;23.200;2022-07-19T08:56:03;2.93;;;2.73;;
1775;SDS011;885;42.626;23.200;2022-07-19T08:58:50;3.57;;;3.00;;
1775;SDS011;885;42.626;23.200;2022-07-19T09:01:18;2.90;;;2.70;;
1775;SDS011;885;42.626;23.200;2022-07-19T09:06:36;3.30;;;3.00;;
1775;SDS011;885;42.626;23.200;2022-07-19T09:09:07;5.37;;;2.83;;
1775;SDS011;885;42.626;23.200;2022-07-19T09:11:54;3.43;;;2.73;;
1775;SDS011;885;42.626;23.200;2022-07-19T09:14:22;3.13;;;2.53;;
1775;SDS011;885;42.626;23.200;2022-07-19T09:16:57;6.87;;;3.13;;
1775;SDS011;885;42.626;23.200;2022-07-19T09:19:27;2.70;;;2.50;;
1775;SDS011;885;42.626;23.200;2022-07-19T09:21:56;6.30;;;3.30;;
1775;SDS011;885;42.626;23.200;2022-07-19T09:24:26;3.00;;;2.60;;
1775;SDS011;885;42.626;23.200;2022-07-19T09:26:55;3.57;;;2.80;;
1775;SDS011;885;42.626;23.200;2022-07-19T09:29:24;7.07;;;3.00;;
1775;SDS011;885;42.626;23.200;2022-07-19T09:32:01;4.70;;;3.03;;
1775;SDS011;885;42.626;23.200;2022-07-19T09:34:37;2.70;;;2.50;;
1775;SDS011;885;42.626;23.200;2022-07-19T09:37:12;2.90;;;2.60;;
1775;SDS011;885;42.626;23.200;2022-07-19T09:39:41;3.10;;;2.43;;
1775;SDS011;885;42.626;23.200;2022-07-19T09:42:11;2.97;;;2.63;;
1775;SDS011;885;42.626;23.200;2022-07-19T09:44:40;3.50;;;2.47;;
1775;SDS011;885;42.626;23.200;2022-07-19T09:47:08;3.40;;;2.27;;
1775;SDS011;885;42.626;23.200;2022-07-19T09:49:35;3.40;;;2.67;;
1775;SDS011;885;42.626;23.200;2022-07-19T09:52:02;3.70;;;2.70;;
1775;SDS011;885;42.626;23.200;2022-07-19T09:54:29;4.47;;;2.40;;
1775;SDS011;885;42.626;23.200;2022-07-19T09:56:58;4.07;;;2.80;;
1775;SDS011;885;42.626;23.200;2022-07-19T09:59:26;4.20;;;2.90;;
1775;SDS011;885;42.626;23.200;2022-07-19T10:01:54;3.23;;;2.70;;
1775;SDS011;885;42.626;23.200;2022-07-19T10:04:25;2.40;;;2.20;;
1775;SDS011;885;42.626;23.200;2022-07-19T10:06:53;3.20;;;2.43;;
1775;SDS011;885;42.626;23.200;2022-07-19T10:09:21;2.50;;;2.20;;
1775;SDS011;885;42.626;23.200;2022-07-19T10:11:49;3.13;;;2.13;;
1775;SDS011;885;42.626;23.200;2022-07-19T10:14:18;2.73;;;2.47;;
1775;SDS011;885;42.626;23.200;2022-07-19T10:16:51;3.20;;;2.53;;
1775;SDS011;885;42.626;23.200;2022-07-19T10:19:33;2.57;;;2.37;;
1775;SDS011;885;42.626;23.200;2022-07-19T10:22:02;5.70;;;2.70;;
1775;SDS011;885;42.626;23.200;2022-07-19T10:27:13;2.73;;;2.53;;
1775;SDS011;885;42.626;23.200;2022-07-19T10:29:42;3.60;;;2.70;;
1775;SDS011;885;42.626;23.200;2022-07-19T10:32:10;3.70;;;2.60;;
1775;SDS011;885;42.626;23.200;2022-07-19T10:34:41;2.83;;;2.60;;
1775;SDS011;885;42.626;23.200;2022-07-19T10:37:11;3.57;;;2.80;;
1775;SDS011;885;42.626;23.200;2022-07-19T10:39:38;2.63;;;2.43;;
1775;SDS011;885;42.626;23.200;2022-07-19T10:42:06;3.17;;;2.50;;
1775;SDS011;885;42.626;23.200;2022-07-19T10:50:52;5.20;;;2.60;;
1775;SDS011;885;42.626;23.200;2022-07-19T10:59:38;4.50;;;2.20;;
1775;SDS011;885;42.626;23.200;2022-07-19T11:02:07;3.20;;;2.40;;
1775;SDS011;885;42.626;23.200;2022-07-19T11:04:49;4.67;;;2.70;;
1775;SDS011;885;42.626;23.200;2022-07-19T11:07:18;4.50;;;2.67;;
1775;SDS011;885;42.626;23.200;2022-07-19T11:09:48;4.30;;;3.00;;
1775;SDS011;885;42.626;23.200;2022-07-19T11:12:23;5.03;;;2.87;;
1775;SDS011;885;42.626;23.200;2022-07-19T11:14:57;2.60;;;2.40;;
1775;SDS011;885;42.626;23.200;2022-07-19T11:17:26;3.50;;;2.20;;
1775;SDS011;885;42.626;23.200;2022-07-19T11:19:56;3.80;;;2.90;;
1775;SDS011;885;42.626;23.200;2022-07-19T11:22:34;3.47;;;2.40;;
1775;SDS011;885;42.626;23.200;2022-07-19T11:25:02;3.10;;;2.87;;
1775;SDS011;885;42.626;23.200;2022-07-19T11:27:30;2.90;;;2.43;;
1775;SDS011;885;42.626;23.200;2022-07-19T11:29:57;3.83;;;3.03;;
1775;SDS011;885;42.626;23.200;2022-07-19T11:32:25;5.00;;;2.90;;
1775;SDS011;885;42.626;23.200;2022-07-19T11:34:53;4.40;;;2.30;;
1775;SDS011;885;42.626;23.200;2022-07-19T11:37:24;6.50;;;2.37;;
1775;SDS011;885;42.626;23.200;2022-07-19T11:39:54;3.40;;;2.60;;
1775;SDS011;885;42.626;23.200;2022-07-19T11:42:29;5.40;;;3.40;;
1775;SDS011;885;42.626;23.200;2022-07-19T11:44:57;4.37;;;3.20;;
1775;SDS011;885;42.626;23.200;2022-07-19T11:47:25;3.47;;;2.80;;
1775;SDS011;885;42.626;23.200;2022-07-19T11:49:51;2.50;;;2.30;;
1775;SDS011;885;42.626;23.200;2022-07-19T11:52:18;7.20;;;3.23;;
1775;SDS011;885;42.626;23.200;2022-07-19T11:54:59;2.77;;;2.57;;
1775;SDS011;885;42.626;23.200;2022-07-19T11:57:27;2.97;;;2.70;;
1775;SDS011;885;42.626;23.200;2022-07-19T11:59:54;3.17;;;2.87;;
1775;SDS011;885;42.626;23.200;2022-07-19T12:02:21;3.30;;;3.00;;
1775;SDS011;885;42.626;23.200;2022-07-19T12:04:48;3.10;;;2.80;;
1775;SDS011;885;42.626;23.200;2022-07-19T12:07:15;2.97;;;2.77;;
1775;SDS011;885;42.626;23.200;2022-07-19T12:09:43;3.20;;;2.63;;
1775;SDS011;885;42.626;23.200;2022-07-19T12:12:15;3.03;;;2.73;;
1775;SDS011;885;42.626;23.200;2022-07-19T12:14:43;4.37;;;2.97;;
1775;SDS011;885;42.626;23.200;2022-07-19T12:17:11;3.27;;;2.73;;
1775;SDS011;885;42.626;23.200;2022-07-19T12:19:39;3.23;;;2.93;;
1775;SDS011;885;42.626;23.200;2022-07-19T12:24:53;5.10;;;2.73;;
1775;SDS011;885;42.626;23.200;2022-07-19T12:27:22;3.33;;;2.63;;
1775;SDS011;885;42.626;23.200;2022-07-19T12:29:52;3.83;;;2.30;;
1775;SDS011;885;42.626;23.200;2022-07-19T12:32:26;4.07;;;2.83;;
1775;SDS011;885;42.626;23.200;2022-07-19T12:34:55;4.37;;;2.90;;
1775;SDS011;885;42.626;23.200;2022-07-19T12:37:24;3.10;;;2.37;;
1775;SDS011;885;42.626;23.200;2022-07-19T12:39:55;2.80;;;2.60;;
1775;SDS011;885;42.626;23.200;2022-07-19T12:42:25;2.60;;;2.40;;
1775;SDS011;885;42.626;23.200;2022-07-19T12:44:52;2.80;;;2.60;;
1775;SDS011;885;42.626;23.200;2022-07-19T12:47:19;2.47;;;2.27;;
1775;SDS011;885;42.626;23.200;2022-07-19T12:49:46;4.43;;;3.10;;
1775;SDS011;885;42.626;23.200;2022-07-19T12:52:14;2.40;;;2.17;;
1775;SDS011;885;42.626;23.200;2022-07-19T12:54:40;2.73;;;2.27;;
1775;SDS011;885;42.626;23.200;2022-07-19T12:57:07;3.83;;;2.50;;
1775;SDS011;885;42.626;23.200;2022-07-19T12:59:35;2.60;;;2.40;;
1775;SDS011;885;42.626;23.200;2022-07-19T13:02:05;4.20;;;2.33;;
1775;SDS011;885;42.626;23.200;2022-07-19T13:04:32;3.93;;;2.43;;
1775;SDS011;885;42.626;23.200;2022-07-19T13:06:59;4.33;;;3.07;;
1775;SDS011;885;42.626;23.200;2022-07-19T13:09:25;3.40;;;2.27;;
1775;SDS011;885;42.626;23.200;2022-07-19T13:11:52;4.00;;;2.53;;
1775;SDS011;885;42.626;23.200;2022-07-19T13:14:19;3.30;;;2.40;;
1775;SDS011;885;42.626;23.200;2022-07-19T13:16:47;6.80;;;3.07;;
1775;SDS011;885;42.626;23.200;2022-07-19T13:19:14;4.03;;;2.50;;
1775;SDS011;885;42.626;23.200;2022-07-19T13:21:41;2.90;;;2.70;;
1775;SDS011;885;42.626;23.200;2022-07-19T13:24:07;3.10;;;2.20;;
1775;SDS011;885;42.626;23.200;2022-07-19T13:26:34;2.47;;;2.27;;
1775;SDS011;885;42.626;23.200;2022-07-19T13:29:01;3.93;;;2.47;;
1775;SDS011;885;42.626;23.200;2022-07-19T13:31:28;3.47;;;2.77;;
1775;SDS011;885;42.626;23.200;2022-07-19T13:33:56;2.13;;;1.93;;
1775;SDS011;885;42.626;23.200;2022-07-19T13:36:23;3.83;;;2.40;;
1775;SDS011;885;42.626;23.200;2022-07-19T13:38:50;4.13;;;2.50;;
1775;SDS011;885;42.626;23.200;2022-07-19T13:41:17;2.40;;;2.20;;
1775;SDS011;885;42.626;23.200;2022-07-19T13:43:44;2.83;;;2.50;;
1775;SDS011;885;42.626;23.200;2022-07-19T13:46:11;4.87;;;2.70;;
1775;SDS011;885;42.626;23.200;2022-07-19T13:48:37;4.20;;;2.27;;
1775;SDS011;885;42.626;23.200;2022-07-19T13:51:06;2.77;;;2.37;;
1775;SDS011;885;42.626;23.200;2022-07-19T13:53:34;3.07;;;2.80;;
1775;SDS011;885;42.626;23.200;2022-07-19T13:56:02;2.77;;;2.57;;
1775;SDS011;885;42.626;23.200;2022-07-19T13:58:30;2.63;;;2.43;;
1775;SDS011;885;42.626;23.200;2022-07-19T14:00:57;2.67;;;2.47;;
1775;SDS011;885;42.626;23.200;2022-07-19T14:03:24;2.67;;;2.30;;
1775;SDS011;885;42.626;23.200;2022-07-19T14:05:51;3.00;;;2.80;;
1775;SDS011;885;42.626;23.200;2022-07-19T14:08:19;2.20;;;2.00;;
1775;SDS011;885;42.626;23.200;2022-07-19T14:10:46;5.40;;;2.60;;
1775;SDS011;885;42.626;23.200;2022-07-19T14:13:13;3.70;;;2.13;;
1775;SDS011;885;42.626;23.200;2022-07-19T14:15:40;3.90;;;2.40;;
1775;SDS011;885;42.626;23.200;2022-07-19T14:18:08;2.83;;;2.53;;
1775;SDS011;885;42.626;23.200;2022-07-19T14:20:35;3.53;;;2.50;;
1775;SDS011;885;42.626;23.200;2022-07-19T14:23:02;3.23;;;2.57;;
1775;SDS011;885;42.626;23.200;2022-07-19T14:25:30;2.17;;;1.87;;
1775;SDS011;885;42.626;23.200;2022-07-19T14:27:57;4.83;;;2.70;;
1775;SDS011;885;42.626;23.200;2022-07-19T14:30:24;3.70;;;2.67;;
1775;SDS011;885;42.626;23.200;2022-07-19T14:32:51;2.20;;;2.00;;
1775;SDS011;885;42.626;23.200;2022-07-19T14:35:17;3.10;;;2.80;;
1775;SDS011;885;42.626;23.200;2022-07-19T14:37:44;2.30;;;2.10;;
1775;SDS011;885;42.626;23.200;2022-07-19T14:40:11;3.37;;;2.40;;
1775;SDS011;885;42.626;23.200;2022-07-19T14:42:40;2.70;;;2.00;;
1775;SDS011;885;42.626;23.200;2022-07-19T14:45:08;3.47;;;2.27;;
1775;SDS011;885;42.626;23.200;2022-07-19T14:47:36;2.80;;;2.00;;
1775;SDS011;885;42.626;23.200;2022-07-19T14:50:04;5.13;;;3.13;;
1775;SDS011;885;42.626;23.200;2022-07-19T14:52:33;3.20;;;2.60;;
1775;SDS011;885;42.626;23.200;2022-07-19T14:55:00;3.50;;;2.00;;
1775;SDS011;885;42.626;23.200;2022-07-19T14:57:28;1.83;;;1.70;;
1775;SDS011;885;42.626;23.200;2022-07-19T14:59:56;3.07;;;2.20;;
1775;SDS011;885;42.626;23.200;2022-07-19T15:02:23;2.40;;;1.97;;
1775;SDS011;885;42.626;23.200;2022-07-19T15:04:50;3.70;;;2.17;;
1775;SDS011;885;42.626;23.200;2022-07-19T15:07:17;3.30;;;2.00;;
1775;SDS011;885;42.626;23.200;2022-07-19T15:09:44;2.40;;;2.20;;
1775;SDS011;885;42.626;23.200;2022-07-19T15:12:11;4.93;;;2.30;;
1775;SDS011;885;42.626;23.200;2022-07-19T15:14:38;1.90;;;1.80;;
1775;SDS011;885;42.626;23.200;2022-07-19T15:17:06;2.17;;;1.90;;
1775;SDS011;885;42.626;23.200;2022-07-19T15:19:32;2.80;;;2.17;;
1775;SDS011;885;42.626;23.200;2022-07-19T15:21:59;2.87;;;2.07;;
1775;SDS011;885;42.626;23.200;2022-07-19T15:24:26;2.30;;;2.03;;
1775;SDS011;885;42.626;23.200;2022-07-19T15:26:53;2.37;;;2.13;;
1775;SDS011;885;42.626;23.200;2022-07-19T15:29:20;2.40;;;2.20;;
1775;SDS011;885;42.626;23.200;2022-07-19T15:31:47;2.90;;;1.83;;
1775;SDS011;885;42.626;23.200;2022-07-19T15:34:15;2.67;;;1.87;;
1775;SDS011;885;42.626;23.200;2022-07-19T15:36:42;3.93;;;2.43;;